Terminal Aerodrome Forecast
Issued by NWS

Home | Current Version | Previous Version | Text Only | Print | Product List | Glossary On
Versions: 1 2 3 4 5 6 7 8 9 10 11 12 13
443
FTUS44 KLZK 151124
TAFHRO
TAF
KHRO 151124Z 1512/1612 28004KT P6SM OVC050
     FM151500 28008KT P6SM SCT250
     FM160000 23005KT P6SM SKC=

USA.gov is the U.S. government's official web portal to all federal, state and local government web resources and services.